Time;durP1;ratioP1;P1;durP2;ratioP2;P2;SDS_P1;SDS_P2;PMS_P1;PMS_P2;Temp;Humidity;BMP_temperature;BMP_pressure;BME280_temperature;BME280_humidity;BME280_pressure;Samples;Min_cycle;Max_cycle;Signal;HPM_P1;HPM_P2
2021/07/09 00:10:07;;;;;;;6.18;2.05;;;;;;;17.02;82.38;100804.63;21242642;27;20051;-71
2021/07/09 00:20:09;;;;;;;4.40;2.22;;;;;;;16.93;82.41;100802.31;21240284;27;20074;-72
2021/07/09 00:30:11;;;;;;;5.03;2.90;;;;;;;16.95;82.41;100794.31;21239587;27;20478;-70
2021/07/09 00:40:14;;;;;;;5.75;2.10;;;;;;;16.83;82.02;100785.03;21239087;27;20047;-70
2021/07/09 00:50:17;;;;;;;7.38;2.47;;;;;;;16.76;82.95;100778.22;21238707;27;20071;-71
2021/07/09 01:00:22;;;;;;;6.85;2.83;;;;;;;16.70;82.55;100783.72;21237078;27;20054;-70
2021/07/09 01:10:24;;;;;;;;;;;;;;;16.75;82.43;100789.72;21236705;27;20437;-71
2021/07/09 01:20:25;;;;;;;8.05;2.50;;;;;;;16.76;81.54;100786.16;21237517;28;20338;-70
2021/07/09 01:30:28;;;;;;;6.35;2.47;;;;;;;16.70;81.85;100799.56;21236832;28;20073;-71
2021/07/09 01:40:30;;;;;;;5.63;2.30;;;;;;;16.66;81.49;100799.66;21236450;28;20043;-71
2021/07/09 01:50:33;;;;;;;5.25;2.40;;;;;;;16.63;81.35;100798.94;21236607;28;20052;-71
2021/07/09 02:00:35;;;;;;;8.57;2.72;;;;;;;16.73;80.63;100789.78;21234407;28;20036;-71
2021/07/09 02:10:41;;;;;;;7.13;2.90;;;;;;;16.82;80.46;100784.19;21235258;28;20430;-72
2021/07/09 02:20:44;;;;;;;6.43;2.28;;;;;;;16.76;80.33;100783.50;21242979;27;20047;-72
2021/07/09 02:30:45;;;;;;;7.22;2.20;;;;;;;16.71;80.17;100785.44;21249370;27;20039;-71
2021/07/09 02:40:47;;;;;;;7.53;2.70;;;;;;;16.72;80.34;100792.47;21248679;27;20039;-70
2021/07/09 02:50:49;;;;;;;4.97;2.20;;;;;;;16.81;79.75;100792.16;21247664;27;20424;-70
2021/07/09 03:00:50;;;;;;;5.85;2.30;;;;;;;16.78;79.46;100794.91;21245726;27;20100;-70
2021/07/09 03:10:52;;;;;;;7.53;2.05;;;;;;;16.68;79.84;100800.50;21246837;27;20511;-70
2021/07/09 03:20:54;;;;;;;5.72;2.58;;;;;;;16.83;78.88;100807.06;21245663;27;20040;-70
2021/07/09 03:30:56;;;;;;;6.30;2.22;;;;;;;16.66;80.50;100820.81;21244030;27;20061;-70
2021/07/09 03:40:58;;;;;;;5.68;2.70;;;;;;;16.48;83.75;100826.75;21244229;27;20492;-71
2021/07/09 03:51:00;;;;;;;5.78;2.75;;;;;;;16.16;85.50;100836.56;21243181;27;20039;-69
2021/07/09 04:01:04;;;;;;;6.55;3.08;;;;;;;16.01;86.80;100837.06;21241992;27;20396;-69
2021/07/09 04:11:06;;;;;;;6.40;3.37;;;;;;;16.05;87.46;100838.69;21242524;27;20055;-70
2021/07/09 04:21:08;;;;;;;7.63;3.90;;;;;;;16.21;87.41;100836.44;21238683;27;20043;-70
2021/07/09 04:31:10;;;;;;;8.82;3.60;;;;;;;16.15;87.28;100850.72;21240064;27;20043;-70
2021/07/09 04:41:12;;;;;;;6.70;3.30;;;;;;;16.13;87.84;100868.38;21238825;27;20501;-70
2021/07/09 04:51:14;;;;;;;6.50;4.50;;;;;;;16.00;87.69;100859.13;21238430;27;20043;-70
2021/07/09 05:01:16;;;;;;;7.07;4.22;;;;;;;16.16;88.25;100881.50;21237130;27;20047;-70
2021/07/09 05:11:18;;;;;;;9.40;4.00;;;;;;;16.22;86.85;100882.22;21238568;28;20047;-69
2021/07/09 05:21:19;;;;;;;9.05;4.68;;;;;;;16.09;86.94;100890.50;21237424;28;20043;-70
2021/07/09 05:31:22;;;;;;;7.72;4.95;;;;;;;16.35;86.84;100894.13;21237007;28;20055;-68
2021/07/09 05:41:25;;;;;;;9.10;4.55;;;;;;;16.42;86.47;100893.88;21237021;28;20050;-68
2021/07/09 05:51:27;;;;;;;8.65;4.38;;;;;;;16.64;85.22;100901.97;21238427;27;20467;-68
2021/07/09 06:01:29;;;;;;;7.88;4.63;;;;;;;16.61;85.51;100915.28;21251437;27;20047;-68
2021/07/09 06:11:32;;;;;;;8.55;4.57;;;;;;;16.89;83.84;100909.13;21251511;27;20061;-69
2021/07/09 06:21:34;;;;;;;11.35;4.25;;;;;;;16.96;83.70;100921.25;21250548;27;20489;-68
2021/07/09 06:31:36;;;;;;;7.28;4.47;;;;;;;16.88;83.61;100925.91;21249337;27;20039;-68
2021/07/09 06:41:38;;;;;;;11.70;4.45;;;;;;;17.05;83.33;100934.13;21247692;27;20108;-68
2021/07/09 06:51:40;;;;;;;7.10;4.05;;;;;;;17.26;83.21;100935.19;21248067;27;20481;-68
2021/07/09 07:01:42;;;;;;;7.93;3.80;;;;;;;17.49;80.96;100934.41;21244200;27;20047;-68
2021/07/09 07:11:44;;;;;;;9.55;4.25;;;;;;;17.65;80.69;100938.22;21246215;27;20039;-68
2021/07/09 07:21:46;;;;;;;9.80;3.45;;;;;;;18.03;79.86;100938.59;21246594;27;20100;-69
2021/07/09 07:31:47;;;;;;;10.18;3.78;;;;;;;18.41;78.08;100936.25;21245000;27;20047;-68
2021/07/09 07:41:49;;;;;;;7.95;3.63;;;;;;;19.10;76.35;100929.00;21244929;27;20420;-70
2021/07/09 07:51:52;;;;;;;7.78;3.80;;;;;;;19.27;74.50;100932.75;21244840;27;20043;-69
2021/07/09 08:01:54;;;;;;;9.05;3.58;;;;;;;19.90;73.21;100925.50;21243050;27;20043;-69
2021/07/09 08:12:01;;;;;;;7.38;4.50;;;;;;;20.24;68.71;100922.13;21241601;27;20043;-69
2021/07/09 08:22:03;;;;;;;9.85;4.32;;;;;;;20.41;69.27;100929.28;21238034;27;20073;-70
2021/07/09 08:32:05;;;;;;;9.02;4.50;;;;;;;20.61;68.13;100926.56;21238892;27;20043;-70
2021/07/09 08:42:07;;;;;;;9.60;4.63;;;;;;;20.97;66.85;100912.34;21238783;27;20047;-70
2021/07/09 08:52:09;;;;;;;10.63;4.63;;;;;;;20.91;65.55;100918.00;21238716;27;20370;-70
2021/07/09 09:02:11;;;;;;;7.05;3.80;;;;;;;21.50;66.36;100922.06;21237636;27;20043;-70
2021/07/09 09:12:14;;;;;;;8.98;3.90;;;;;;;21.97;63.71;100926.66;21238041;28;20100;-70
2021/07/09 09:22:16;;;;;;;9.23;5.15;;;;;;;21.19;65.50;100938.78;21236245;28;20074;-69
2021/07/09 09:32:18;;;;;;;9.13;5.25;;;;;;;20.88;64.73;100934.97;21250355;27;20416;-70
2021/07/09 09:42:23;;;;;;;7.95;5.15;;;;;;;21.48;65.21;100918.63;21253711;27;20054;-69
2021/07/09 09:52:43;;;;;;;;;;;;;;;21.88;61.23;100911.16;21246122;27;20066;-70
2021/07/09 10:02:45;;;;;;;8.77;5.10;;;;;;;22.49;57.80;100889.94;21259054;27;19926;-70
2021/07/09 10:12:52;;;;;;;10.25;6.47;;;;;;;22.66;57.43;100886.31;21251150;27;20096;-70
2021/07/09 10:22:57;;;;;;;11.80;6.10;;;;;;;22.51;58.21;100887.19;21249448;27;20049;-69
2021/07/09 10:32:59;;;;;;;10.13;6.43;;;;;;;22.18;61.62;100898.84;21249731;27;20043;-70
2021/07/09 10:43:01;;;;;;;14.63;8.90;;;;;;;20.46;71.46;100916.66;21248758;27;20043;-70
2021/07/09 10:53:09;;;;;;;13.88;9.55;;;;;;;20.21;73.89;100922.25;21228340;27;20044;-71
2021/07/09 11:03:20;;;;;;;17.20;11.20;;;;;;;20.29;77.95;100909.47;21162745;28;20047;-70
2021/07/09 11:13:39;;;;;;;15.02;10.38;;;;;;;20.81;74.66;100898.97;21162797;28;20047;-69
2021/07/09 11:23:52;;;;;;;12.75;9.90;;;;;;;21.62;71.73;100894.78;21161552;28;20047;-70
2021/07/09 11:34:03;;;;;;;14.27;9.32;;;;;;;22.32;69.44;100883.84;21160029;28;20035;-70
2021/07/09 11:44:06;;;;;;;12.48;7.15;;;;;;;22.37;63.85;100869.28;21158794;28;20062;-70
2021/07/09 11:54:08;;;;;;;12.75;6.65;;;;;;;22.81;60.88;100870.34;21157354;28;20044;-70
2021/07/09 12:04:10;;;;;;;6.90;5.25;;;;;;;22.03;59.32;100878.31;21156597;27;20540;-70
2021/07/09 12:14:13;;;;;;;6.03;4.50;;;;;;;22.31;58.68;100864.31;21155544;28;20104;-70
2021/07/09 12:24:14;;;;;;;9.15;4.75;;;;;;;22.22;55.48;100847.03;21152816;28;20501;-70
2021/07/09 12:34:23;;;;;;;9.38;6.72;;;;;;;22.57;57.78;100849.47;21152150;28;20044;-70
2021/07/09 12:44:25;;;;;;;9.48;5.63;;;;;;;23.54;58.72;100849.84;21151282;28;20069;-70
2021/07/09 12:54:31;;;;;;;5.80;3.92;;;;;;;23.15;53.57;100861.19;21185256;27;20039;-70
2021/07/09 13:04:41;;;;;;;5.35;3.83;;;;;;;22.34;55.97;100855.28;21234632;27;20051;-70
2021/07/09 13:14:49;;;;;;;5.68;3.58;;;;;;;22.17;53.65;100853.56;21236070;27;20116;-70
2021/07/09 13:25:10;;;;;;;6.10;3.58;;;;;;;22.66;54.01;100840.94;21236834;28;20194;-70
2021/07/09 13:35:16;;;;;;;6.25;4.35;;;;;;;23.12;55.82;100840.84;21233202;28;20047;-70
2021/07/09 13:45:18;;;;;;;7.65;5.25;;;;;;;23.83;55.46;100850.72;21235075;28;20097;-70
2021/07/09 13:55:20;;;;;;;8.73;4.78;;;;;;;23.88;56.31;100858.44;21236100;27;20051;-72
2021/07/09 14:05:22;;;;;;;7.95;4.70;;;;;;;24.02;55.48;100866.44;21234696;28;20039;-71
2021/07/09 14:15:26;;;;;;;7.85;4.78;;;;;;;24.48;49.41;100884.88;21241564;27;20492;-71
2021/07/09 14:25:28;;;;;;;5.35;3.47;;;;;;;21.92;51.03;100912.72;21250722;27;20130;-72
2021/07/09 14:35:31;;;;;;;6.10;4.00;;;;;;;20.84;59.43;100903.25;21248251;27;20043;-71
2021/07/09 14:45:33;;;;;;;6.63;3.63;;;;;;;20.87;58.90;100895.13;21248546;27;20085;-71
2021/07/09 14:55:35;;;;;;;5.72;3.70;;;;;;;20.22;59.17;100900.94;21246965;27;20058;-70
2021/07/09 15:05:36;;;;;;;6.72;4.28;;;;;;;20.12;62.39;100891.69;21245962;27;20039;-71
2021/07/09 15:15:38;;;;;;;7.15;4.35;;;;;;;19.96;63.52;100883.56;21244906;27;20485;-71
2021/07/09 15:25:40;;;;;;;6.55;4.10;;;;;;;20.02;64.59;100895.69;21245160;27;20058;-71
2021/07/09 15:35:45;;;;;;;8.85;4.68;;;;;;;20.16;65.81;100909.19;21242288;27;20043;-71
2021/07/09 15:45:47;;;;;;;8.23;5.50;;;;;;;20.40;73.92;100893.84;21242993;27;20048;-71
2021/07/09 15:55:49;;;;;;;7.78;5.82;;;;;;;20.56;74.03;100886.03;21240925;27;20054;-71
2021/07/09 16:05:51;;;;;;;7.68;6.13;;;;;;;20.60;73.41;100876.97;21240827;27;20039;-71
2021/07/09 16:15:53;;;;;;;7.28;5.38;;;;;;;20.93;71.68;100862.88;21238490;27;20447;-71
2021/07/09 16:25:54;;;;;;;8.23;5.70;;;;;;;20.82;69.04;100854.59;21250548;27;20423;-71
2021/07/09 16:35:56;;;;;;;8.20;5.72;;;;;;;21.13;71.59;100854.75;21268912;27;20043;-72
2021/07/09 16:45:58;;;;;;;9.35;5.63;;;;;;;20.89;73.02;100851.53;21221339;27;20043;-70
2021/07/09 16:56:01;;;;;;;10.85;7.03;;;;;;;20.52;75.65;100860.53;21238932;27;20055;-70
2021/07/09 17:06:03;;;;;;;8.23;6.35;;;;;;;20.18;76.63;100848.84;21236163;27;20459;-73
2021/07/09 17:16:05;;;;;;;9.18;7.20;;;;;;;20.24;77.13;100856.50;21236175;28;20076;-72
2021/07/09 17:26:18;;;;;;;10.05;7.28;;;;;;;20.19;76.76;100861.19;21237585;28;20047;-71
2021/07/09 17:36:20;;;;;;;9.25;7.10;;;;;;;20.04;78.14;100861.94;21235025;28;20039;-70
2021/07/09 17:46:22;;;;;;;9.55;7.55;;;;;;;19.94;77.79;100860.66;21237977;27;20074;-70
2021/07/09 17:56:24;;;;;;;10.77;8.15;;;;;;;19.92;77.83;100857.19;21251880;27;20047;-70
2021/07/09 18:06:26;;;;;;;9.50;7.25;;;;;;;19.76;79.63;100848.22;21251187;27;20046;-71
2021/07/09 18:16:40;;;;;;;10.40;7.57;;;;;;;19.64;78.74;100858.50;21250410;27;20039;-71
2021/07/09 18:26:42;;;;;;;9.90;6.80;;;;;;;19.97;76.34;100865.81;21249148;27;20077;-70
2021/07/09 18:36:45;;;;;;;10.80;6.90;;;;;;;20.04;75.91;100877.88;21247512;27;20043;-71
2021/07/09 18:47:01;;;;;;;8.40;6.22;;;;;;;19.88;75.07;100869.78;21246918;27;20043;-71
2021/07/09 18:57:04;;;;;;;8.32;6.80;;;;;;;19.77;76.21;100879.16;21246789;27;20047;-71
2021/07/09 19:07:05;;;;;;;8.40;6.43;;;;;;;19.50;76.63;100882.13;21244489;27;20044;-71
2021/07/09 19:17:07;;;;;;;10.10;6.60;;;;;;;19.35;77.69;100877.47;21246530;27;20051;-71
2021/07/09 19:27:09;;;;;;;9.23;7.05;;;;;;;19.16;77.99;100878.31;21244694;27;20100;-70
2021/07/09 19:37:10;;;;;;;11.68;7.63;;;;;;;18.86;79.39;100882.28;21242491;27;20039;-71
2021/07/09 19:47:12;;;;;;;9.23;7.07;;;;;;;18.77;80.23;100880.00;21242704;27;20047;-71
2021/07/09 19:57:15;;;;;;;11.27;7.80;;;;;;;18.71;80.54;100897.91;21242878;27;20378;-71
2021/07/09 20:07:16;;;;;;;11.98;8.98;;;;;;;18.61;82.09;100907.13;21240176;27;20051;-71
2021/07/09 20:17:18;;;;;;;11.48;8.88;;;;;;;18.11;83.76;100912.69;21238887;27;20459;-70
2021/07/09 20:27:20;;;;;;;11.43;9.23;;;;;;;18.11;83.25;100915.34;21240197;27;20107;-71
2021/07/09 20:37:31;;;;;;;9.98;8.32;;;;;;;18.20;82.62;100907.03;21238248;27;20074;-70
2021/07/09 20:47:33;;;;;;;13.50;9.20;;;;;;;18.10;82.80;100899.47;21221300;27;20418;-71
2021/07/09 20:57:36;;;;;;;10.30;8.40;;;;;;;18.07;82.82;100889.00;21238523;27;20047;-71
2021/07/09 21:07:37;;;;;;;10.70;9.15;;;;;;;18.08;83.56;100901.34;21238001;27;20039;-71
2021/07/09 21:17:42;;;;;;;10.73;8.95;;;;;;;18.09;83.78;100903.03;21237465;27;20053;-70
2021/07/09 21:27:47;;;;;;;14.75;12.10;;;;;;;17.98;84.74;100900.81;21249695;27;20092;-71
2021/07/09 21:37:49;;;;;;;14.25;11.55;;;;;;;17.80;85.54;100890.91;21253221;27;20065;-71
2021/07/09 21:47:52;;;;;;;16.70;11.00;;;;;;;17.79;84.85;100890.06;21253558;27;20047;-70
2021/07/09 21:57:54;;;;;;;49.17;34.92;;;;;;;17.75;84.97;100883.16;21252425;27;20101;-70
2021/07/09 22:08:11;;;;;;;21.55;15.20;;;;;;;17.77;85.21;100885.72;21251013;27;20127;-72
2021/07/09 22:18:13;;;;;;;14.90;11.55;;;;;;;17.76;86.12;100887.50;21250821;27;20051;-72
2021/07/09 22:28:15;;;;;;;13.07;10.15;;;;;;;17.68;85.75;100885.13;21249910;27;20568;-72
2021/07/09 22:38:17;;;;;;;18.98;12.35;;;;;;;17.63;85.91;100886.19;21246514;27;20050;-71
2021/07/09 22:48:19;;;;;;;16.05;12.80;;;;;;;17.55;86.06;100886.50;21247226;27;20070;-71
2021/07/09 22:58:21;;;;;;;15.63;11.90;;;;;;;17.44;86.02;100886.03;21228660;27;20048;-72
2021/07/09 23:08:22;;;;;;;14.77;12.02;;;;;;;17.24;87.53;100888.53;21245712;27;20116;-72
2021/07/09 23:18:24;;;;;;;16.83;13.13;;;;;;;17.15;87.34;100887.06;21245363;27;20065;-72
2021/07/09 23:28:26;;;;;;;15.48;11.43;;;;;;;17.12;86.62;100861.59;21244349;27;20051;-71
2021/07/09 23:38:28;;;;;;;15.48;11.18;;;;;;;16.76;87.54;100857.56;21243976;27;20061;-72
2021/07/09 23:48:30;;;;;;;12.80;10.23;;;;;;;16.45;87.45;100837.41;21243517;27;20051;-72
2021/07/09 23:58:31;;;;;;;14.32;12.10;;;;;;;16.27;87.67;100832.72;21242655;27;20100;-72
